Time;durP1;ratioP1;P1;durP2;ratioP2;P2;SDS_P1;SDS_P2;PMS_P1;PMS_P2;Temp;Humidity;BMP_temperature;BMP_pressure;BME280_temperature;BME280_humidity;BME280_pressure;Samples;Min_cycle;Max_cycle;Signal;HPM_P1;HPM_P2
2022/04/20 00:03:42;;;;;;;10.47;6.43;;;;;;;7.82;86.03;100715.67;5242637;56;1137012;-71
2022/04/20 00:08:48;;;;;;;9.10;5.63;;;;;;;7.80;88.03;100716.70;5242365;56;1137103;-71
2022/04/20 00:13:53;;;;;;;7.90;6.00;;;;;;;7.79;87.38;100717.21;5242598;56;1135034;-69
2022/04/20 00:18:59;;;;;;;8.55;7.03;;;;;;;7.85;87.18;100716.80;5242431;56;1134871;-70
2022/04/20 00:24:06;;;;;;;10.17;8.43;;;;;;;7.91;87.37;100714.27;5242494;56;1134778;-68
2022/04/20 00:29:11;;;;;;;7.70;6.43;;;;;;;7.90;87.50;100716.05;5242547;56;1136915;-69
2022/04/20 00:34:17;;;;;;;14.83;9.98;;;;;;;7.91;88.08;100705.05;5242332;56;1134921;-71
2022/04/20 00:39:23;;;;;;;18.97;10.47;;;;;;;7.81;88.03;100713.98;5241391;56;1137134;-69
2022/04/20 00:44:31;;;;;;;16.07;9.73;;;;;;;7.87;88.21;100703.55;5217236;56;1138944;-69
2022/04/20 00:49:38;;;;;;;10.13;6.20;;;;;;;7.84;88.79;100694.52;5172027;56;1137333;-68
2022/04/20 00:54:44;;;;;;;12.93;8.17;;;;;;;7.77;90.96;100699.34;5161622;57;1136914;-71
2022/04/20 00:59:57;;;;;;;9.00;6.03;;;;;;;7.75;89.69;100687.59;5161560;57;1134805;-68
2022/04/20 01:05:04;;;;;;;5.62;4.20;;;;;;;7.76;90.06;100694.55;5161819;57;1137016;-68
2022/04/20 01:10:23;;;;;;;9.07;5.70;;;;;;;7.71;91.35;100695.30;5155645;57;1136902;-69
2022/04/20 01:15:31;;;;;;;9.88;7.00;;;;;;;7.64;90.99;100689.19;5157040;57;1137134;-71
2022/04/20 01:20:55;;;;;;;8.20;6.10;;;;;;;7.58;90.79;100694.84;5161680;57;1136948;-69
2022/04/20 01:26:11;;;;;;;10.67;6.47;;;;;;;7.65;90.90;100689.56;5139204;57;1136995;-69
2022/04/20 01:31:24;;;;;;;14.30;6.83;;;;;;;7.65;90.50;100697.45;5158915;57;1139046;-68
2022/04/20 01:36:37;;;;;;;10.43;5.70;;;;;;;7.62;90.63;100691.09;5139518;57;1139013;-68
2022/04/20 01:41:43;;;;;;;7.57;5.93;;;;;;;7.58;91.19;100681.22;5159277;57;1139078;-69
2022/04/20 01:46:49;;;;;;;8.93;6.22;;;;;;;7.51;91.35;100683.00;5172554;56;1137014;-69
2022/04/20 01:52:13;;;;;;;9.58;6.78;;;;;;;7.39;91.78;100670.14;5221649;56;1136966;-71
2022/04/20 01:57:25;;;;;;;8.53;6.70;;;;;;;7.38;91.90;100669.30;5221724;56;1137180;-71
2022/04/20 02:02:45;;;;;;;11.57;6.00;;;;;;;7.46;92.17;100654.36;5221482;56;1137109;-71
2022/04/20 02:07:53;;;;;;;8.97;7.33;;;;;;;7.54;92.11;100647.28;5148175;56;1139158;-72
2022/04/20 02:13:00;;;;;;;12.17;7.33;;;;;;;7.50;91.80;100645.78;5221445;56;1136947;-70
2022/04/20 02:18:13;;;;;;;;;;;;;;;7.52;91.75;100639.48;5225793;56;1139013;-71
2022/04/20 02:23:26;;;;;;;10.27;7.20;;;;;;;7.50;92.14;100624.25;5225244;56;974408;-69
2022/04/20 02:28:33;;;;;;;8.57;7.10;;;;;;;7.38;92.18;100613.19;5221947;56;1137269;-70
2022/04/20 02:33:39;;;;;;;8.03;6.23;;;;;;;7.40;92.31;100617.42;5222035;56;1134876;-70
2022/04/20 02:38:44;;;;;;;11.43;7.20;;;;;;;7.39;92.55;100611.78;5221980;56;1135084;-70
2022/04/20 02:43:52;;;;;;;12.70;8.10;;;;;;;7.31;92.86;100614.06;5186275;56;1136965;-69
2022/04/20 02:48:58;;;;;;;6.63;5.50;;;;;;;7.33;93.20;100625.31;5161884;56;1136931;-69
2022/04/20 02:54:04;;;;;;;8.13;6.00;;;;;;;7.26;93.52;100626.65;5161861;57;1134857;-68
2022/04/20 02:59:12;;;;;;;8.90;6.33;;;;;;;7.28;93.99;100624.77;5161823;57;1134955;-71
2022/04/20 03:04:19;;;;;;;8.33;5.90;;;;;;;7.30;93.59;100627.31;5161800;57;1134835;-69
2022/04/20 03:09:25;;;;;;;8.03;5.95;;;;;;;7.34;93.77;100620.42;5161642;57;1134828;-71
2022/04/20 03:14:31;;;;;;;6.63;5.80;;;;;;;7.25;93.37;100621.02;5161738;57;1135106;-70
2022/04/20 03:19:39;;;;;;;7.03;5.83;;;;;;;7.29;93.30;100626.47;5161541;57;1134750;-69
2022/04/20 03:24:46;;;;;;;7.57;5.70;;;;;;;7.24;93.35;100622.42;5161671;57;1135092;-68
2022/04/20 03:30:01;;;;;;;7.27;5.70;;;;;;;7.19;93.41;100609.55;5159507;57;1135001;-68
2022/04/20 03:35:08;;;;;;;7.63;5.70;;;;;;;7.21;93.51;100614.71;5161743;57;1134901;-71
2022/04/20 03:40:15;;;;;;;6.53;5.07;;;;;;;7.20;93.47;100609.92;5161892;57;1134371;-68
2022/04/20 03:45:21;;;;;;;5.73;5.07;;;;;;;7.20;93.55;100611.70;5157870;57;1132699;-72
2022/04/20 03:50:27;;;;;;;8.20;5.17;;;;;;;7.20;93.68;100611.23;5220705;56;1132992;-72
2022/04/20 03:55:34;;;;;;;7.53;5.40;;;;;;;7.17;93.99;100606.19;5211481;56;1136944;-71
2022/04/20 04:00:41;;;;;;;7.00;4.47;;;;;;;7.08;94.43;100614.62;5137916;56;1137132;-72
2022/04/20 04:05:47;;;;;;;9.23;5.70;;;;;;;7.03;95.20;100603.07;5222052;56;1136776;-71
2022/04/20 04:10:56;;;;;;;7.60;4.87;;;;;;;6.99;94.35;100608.63;5221786;56;1136835;-70
2022/04/20 04:16:03;;;;;;;5.87;4.90;;;;;;;7.03;94.57;100614.91;5221635;56;1136927;-69
2022/04/20 04:21:09;;;;;;;7.70;5.80;;;;;;;6.99;94.60;100604.22;5221653;56;1137158;-72
2022/04/20 04:26:16;;;;;;;5.37;4.87;;;;;;;6.96;94.77;100608.34;5221566;56;1136911;-71
2022/04/20 04:31:27;;;;;;;14.57;5.93;;;;;;;6.96;94.58;100604.88;5221575;56;1136862;-72
2022/04/20 04:36:34;;;;;;;6.00;4.73;;;;;;;6.99;95.04;100605.53;5221491;56;1138985;-69
2022/04/20 04:41:42;;;;;;;7.53;4.27;;;;;;;7.02;94.60;100608.45;5221628;56;1136996;-68
2022/04/20 04:52:14;;;;;;;6.53;5.07;;;;;;;7.05;95.10;100608.23;5158609;57;1136872;-70
2022/04/20 04:57:22;;;;;;;8.90;5.23;;;;;;;7.00;95.35;100605.91;5161007;57;1137121;-70
2022/04/20 05:02:28;;;;;;;9.40;5.13;;;;;;;7.01;95.96;100606.29;5161479;57;1136954;-71
2022/04/20 05:07:35;;;;;;;17.13;7.07;;;;;;;7.01;95.66;100614.18;5161363;57;1136985;-69
2022/04/20 05:12:43;;;;;;;9.53;6.00;;;;;;;6.99;95.35;100617.84;5161308;57;1139211;-70
2022/04/20 05:17:49;;;;;;;10.53;6.30;;;;;;;7.00;95.71;100610.33;5161302;57;1136962;-71
2022/04/20 05:22:57;;;;;;;5.30;4.57;;;;;;;6.98;95.79;100610.41;5161495;57;1139020;-70
2022/04/20 05:28:05;;;;;;;16.57;6.33;;;;;;;6.97;97.23;100615.30;5161430;57;1136900;-70
2022/04/20 05:33:12;;;;;;;29.70;9.40;;;;;;;6.96;96.95;100618.86;5161466;57;1139058;-71
2022/04/20 05:43:42;;;;;;;19.27;7.57;;;;;;;6.94;97.82;100622.05;5161442;57;1138942;-70
2022/04/20 05:48:49;;;;;;;14.00;7.10;;;;;;;7.03;98.22;100619.31;5162084;57;1138971;-69
2022/04/20 05:53:55;;;;;;;20.45;9.25;;;;;;;7.13;98.58;100614.36;5161899;57;1139023;-71
2022/04/20 05:59:03;;;;;;;13.37;6.27;;;;;;;7.15;98.47;100615.95;5161879;57;1139314;-68
2022/04/20 06:04:09;;;;;;;14.80;6.63;;;;;;;7.20;98.42;100615.65;5121148;57;1139497;-69
2022/04/20 06:09:17;;;;;;;8.13;5.43;;;;;;;7.25;98.35;100614.44;5106298;57;1139140;-72
2022/04/20 06:14:29;;;;;;;;;;;;;;;7.23;98.26;100610.20;5164845;57;1134839;-72
2022/04/20 06:19:46;;;;;;;12.82;6.67;;;;;;;7.27;98.82;100598.56;5133879;57;972193;-72
2022/04/20 06:24:53;;;;;;;6.93;4.27;;;;;;;7.33;98.98;100589.80;5155989;57;1134769;-68
2022/04/20 06:30:16;;;;;;;9.18;4.83;;;;;;;7.39;98.89;100576.73;5161985;57;1134807;-70
2022/04/20 06:35:27;;;;;;;8.47;4.83;;;;;;;7.31;98.80;100571.97;5139231;57;1134822;-68
2022/04/20 06:40:51;;;;;;;8.63;5.22;;;;;;;7.27;98.82;100568.30;5161919;57;1134941;-70
2022/04/20 06:46:09;;;;;;;5.60;4.33;;;;;;;7.30;99.67;100557.59;5175372;57;1137088;-71
2022/04/20 06:51:17;;;;;;;6.17;3.97;;;;;;;7.26;100.00;100528.00;5154071;57;1136879;-71
2022/04/20 07:01:51;;;;;;;8.13;4.65;;;;;;;7.26;100.00;100517.95;5161930;56;1139076;-71
2022/04/20 07:07:05;;;;;;;5.23;4.63;;;;;;;7.22;100.00;100515.13;5160156;56;1139169;-70
2022/04/20 07:12:21;;;;;;;21.97;10.73;;;;;;;7.19;100.00;100518.80;5159884;56;1138918;-70
2022/04/20 07:17:27;;;;;;;8.33;6.30;;;;;;;7.25;100.00;100514.95;5161653;56;1143179;-72
2022/04/20 07:22:37;;;;;;;10.20;5.03;;;;;;;7.24;100.00;100512.78;5159713;56;1139050;-70
2022/04/20 07:27:48;;;;;;;7.33;4.00;;;;;;;7.25;100.00;100501.80;5161395;56;1140989;-69
2022/04/20 07:33:16;;;;;;;11.00;5.70;;;;;;;7.23;100.00;100504.52;5162099;56;1138835;-70
2022/04/20 07:38:42;;;;;;;8.60;4.23;;;;;;;7.23;100.00;100495.31;5159795;57;1141129;-71
2022/04/20 07:44:06;;;;;;;5.27;3.73;;;;;;;7.21;100.00;100497.19;5161493;57;1139083;-74
2022/04/20 07:54:56;;;;;;;7.33;4.47;;;;;;;7.23;100.00;100466.84;5240767;56;1137146;-77
2022/04/20 08:00:17;;;;;;;13.90;6.70;;;;;;;7.19;100.00;100467.51;5072094;57;1136941;-77
2022/04/20 08:05:25;;;;;;;16.73;9.60;;;;;;;7.18;100.00;100476.34;5238110;56;1139207;-79
2022/04/20 08:10:31;;;;;;;8.70;4.90;;;;;;;7.15;100.00;100474.40;5242551;56;1138959;-77
2022/04/20 08:15:37;;;;;;;9.00;5.07;;;;;;;7.09;100.00;100476.09;5242298;56;1136957;-78
2022/04/20 08:20:44;;;;;;;11.40;5.87;;;;;;;7.02;100.00;100469.94;5231902;56;1136914;-76
2022/04/20 08:25:50;;;;;;;7.57;4.80;;;;;;;7.03;100.00;100451.02;5235726;56;1139195;-74
2022/04/20 08:30:56;;;;;;;5.17;4.05;;;;;;;7.01;100.00;100443.73;5155787;57;1137128;-79
2022/04/20 08:36:02;;;;;;;4.93;4.13;;;;;;;6.98;100.00;100434.25;5156137;56;1137039;-76
2022/04/20 08:41:09;;;;;;;4.60;3.80;;;;;;;6.92;100.00;100428.05;5156009;57;1136921;-76
2022/04/20 08:46:18;;;;;;;5.37;3.90;;;;;;;6.89;100.00;100403.27;5170876;56;1136559;-76
2022/04/20 08:52:36;;;;;;;9.23;3.97;;;;;;;6.89;100.00;100376.13;5163911;56;1135131;-74
2022/04/20 09:01:59;;;;;;;7.30;4.80;;;;;;;6.87;100.00;100392.51;5131438;56;1139328;-76
2022/04/20 09:07:07;;;;;;;11.75;5.17;;;;;;;6.93;100.00;100403.92;5126040;56;1139247;-74
2022/04/20 09:12:19;;;;;;;11.47;3.83;;;;;;;6.97;100.00;100395.75;5117844;56;1141096;-77
2022/04/20 09:17:26;;;;;;;5.60;3.50;;;;;;;6.98;100.00;100368.98;5115276;56;1141087;-71
2022/04/20 09:22:33;;;;;;;9.37;4.97;;;;;;;7.03;100.00;100387.91;5127621;57;1138963;-80
2022/04/20 09:27:41;;;;;;;7.03;4.87;;;;;;;7.12;100.00;100360.19;5116620;57;1139535;-79
2022/04/20 09:32:49;;;;;;;10.10;5.43;;;;;;;7.12;100.00;100360.19;5114616;57;1139177;-77
2022/04/20 09:38:09;;;;;;;9.73;4.10;;;;;;;7.15;100.00;100346.84;5142008;56;1141023;-72
2022/04/20 09:43:20;;;;;;;5.73;5.13;;;;;;;7.18;100.00;100318.53;5089354;56;1138943;-77
2022/04/20 09:53:50;;;;;;;8.53;6.42;;;;;;;7.20;100.00;100332.42;5153935;56;1141059;-75
2022/04/20 09:59:04;;;;;;;15.53;6.47;;;;;;;7.21;100.00;100314.39;5234359;56;1139009;-72
2022/04/20 10:04:10;;;;;;;14.03;7.27;;;;;;;7.22;100.00;100311.28;5196326;56;1141502;-75
2022/04/20 10:09:16;;;;;;;8.57;5.87;;;;;;;7.18;100.00;100303.25;5180055;56;1141269;-77
2022/04/20 10:19:48;;;;;;;12.70;7.83;;;;;;;7.21;100.00;100292.03;5158041;56;1139274;-78
2022/04/20 10:24:56;;;;;;;8.10;6.17;;;;;;;7.23;100.00;100301.14;5001133;58;1141202;-74
2022/04/20 10:30:11;;;;;;;12.13;5.87;;;;;;;7.30;100.00;100303.73;5034389;58;1139247;-78
2022/04/20 10:35:17;;;;;;;5.83;4.37;;;;;;;7.36;100.00;100303.30;5011208;58;1139775;-77
2022/04/20 10:40:25;;;;;;;8.63;4.60;;;;;;;7.38;100.00;100289.11;5023820;58;1137233;-76
2022/04/20 10:45:35;;;;;;;10.57;5.27;;;;;;;7.37;100.00;100292.68;5010379;58;1137119;-77
2022/04/20 10:50:41;;;;;;;9.40;5.33;;;;;;;7.41;100.00;100301.22;5123674;56;1139084;-74
2022/04/20 10:55:51;;;;;;;7.77;5.43;;;;;;;7.49;100.00;100292.78;5172129;56;1136961;-78
2022/04/20 11:01:12;;;;;;;7.67;5.30;;;;;;;7.59;100.00;100295.17;5198602;56;1136914;-73
2022/04/20 11:06:18;;;;;;;6.95;4.12;;;;;;;7.72;100.00;100303.91;5159234;56;1137261;-74
2022/04/20 11:22:31;;;;;;;24.13;14.17;;;;;;;7.77;100.00;100295.23;5166358;56;1141320;-76
2022/04/20 11:27:38;;;;;;;15.67;8.47;;;;;;;7.91;100.00;100308.27;5161726;56;1143423;-76
2022/04/20 11:32:45;;;;;;;7.57;4.87;;;;;;;8.04;100.00;100305.14;5161513;56;1141096;-75
2022/04/20 11:37:58;;;;;;;10.03;6.10;;;;;;;8.04;100.00;100292.44;5161614;56;1138991;-81
2022/04/20 11:43:10;;;;;;;6.90;5.10;;;;;;;7.99;100.00;100284.86;5186746;56;1141322;-77
2022/04/20 11:48:17;;;;;;;6.93;5.27;;;;;;;8.00;100.00;100281.28;5248321;56;1138993;-76
2022/04/20 11:53:34;;;;;;;9.77;5.73;;;;;;;8.03;100.00;100277.59;5166261;56;1139045;-76
2022/04/20 11:58:41;;;;;;;11.30;5.77;;;;;;;8.03;100.00;100274.95;5139051;56;1139085;-77
2022/04/20 12:03:50;;;;;;;15.07;6.07;;;;;;;8.05;100.00;100276.53;5118268;56;1141069;-72
2022/04/20 12:08:55;;;;;;;10.03;6.67;;;;;;;8.01;100.00;100273.74;5164112;56;1141072;-75
2022/04/20 12:14:02;;;;;;;8.23;4.67;;;;;;;8.00;100.00;100277.80;5151466;56;1141081;-77
2022/04/20 12:19:10;;;;;;;8.20;5.77;;;;;;;8.02;100.00;100263.58;5160437;56;1138998;-72
2022/04/20 12:24:23;;;;;;;10.30;6.20;;;;;;;8.03;100.00;100259.99;5146678;56;1139048;-72
2022/04/20 12:29:34;;;;;;;15.15;7.45;;;;;;;8.04;100.00;100261.68;5135761;56;1141090;-73
2022/04/20 12:34:44;;;;;;;10.78;6.47;;;;;;;8.11;100.00;100274.77;5125957;56;1141082;-72
2022/04/20 12:39:50;;;;;;;17.60;6.80;;;;;;;8.19;100.00;100269.44;5102168;56;1141590;-72
2022/04/20 12:45:02;;;;;;;21.00;10.83;;;;;;;8.20;100.00;100268.02;5108444;57;1141042;-72
2022/04/20 12:50:08;;;;;;;71.27;33.17;;;;;;;8.23;100.00;100261.69;5153044;56;1143599;-72
2022/04/20 12:55:15;;;;;;;23.73;12.53;;;;;;;8.27;100.00;100261.33;5161253;57;1143230;-72
2022/04/20 13:05:48;;;;;;;13.60;8.63;;;;;;;8.43;100.00;100265.89;5161758;57;1141095;-71
2022/04/20 13:10:53;;;;;;;16.73;9.43;;;;;;;8.51;100.00;100263.19;5161404;57;1139325;-71
2022/04/20 13:15:59;;;;;;;19.33;11.70;;;;;;;8.56;100.00;100261.88;5161336;57;1139062;-72
2022/04/20 13:21:05;;;;;;;25.63;13.70;;;;;;;8.65;100.00;100264.34;5161144;57;1141392;-72
2022/04/20 13:31:34;;;;;;;21.67;10.67;;;;;;;8.75;100.00;100263.53;5247983;56;1140420;-72
2022/04/20 13:36:40;;;;;;;20.07;11.77;;;;;;;8.80;100.00;100271.95;5171930;56;1141119;-72
2022/04/20 13:41:46;;;;;;;21.80;11.87;;;;;;;8.81;100.00;100272.32;5186953;56;1141132;-72
2022/04/20 13:46:52;;;;;;;19.07;9.67;;;;;;;8.81;100.00;100276.75;5212782;56;1141043;-74
2022/04/20 13:51:58;;;;;;;18.10;9.43;;;;;;;8.86;100.00;100286.97;5247906;56;1138948;-73
2022/04/20 13:57:04;;;;;;;30.83;15.67;;;;;;;8.90;100.00;100289.24;5248031;56;1138988;-74
2022/04/20 14:02:11;;;;;;;708.63;350.63;;;;;;;8.93;100.00;100286.38;5248061;56;1141160;-72
2022/04/20 14:07:19;;;;;;;48.00;25.97;;;;;;;8.92;100.00;100278.11;5248353;56;1145363;-75
2022/04/20 14:12:26;;;;;;;20.07;11.07;;;;;;;8.92;100.00;100282.06;5248131;56;1141071;-75
2022/04/20 14:17:32;;;;;;;21.20;10.47;;;;;;;8.93;100.00;100291.66;5206753;56;1139066;-73
2022/04/20 14:22:38;;;;;;;26.70;14.80;;;;;;;8.99;100.00;100289.05;5162052;57;1139067;-77
2022/04/20 14:33:07;;;;;;;242.37;146.45;;;;;;;9.08;100.00;100299.75;5183803;56;1147324;-76
2022/04/20 14:38:13;;;;;;;55.00;41.17;;;;;;;9.14;100.00;100303.27;5241107;56;1147279;-73
2022/04/20 14:43:19;;;;;;;23.33;14.47;;;;;;;9.22;100.00;100300.51;5165888;56;1143186;-73
2022/04/20 14:48:25;;;;;;;23.53;11.77;;;;;;;9.25;100.00;100301.13;5195726;56;1143122;-76
2022/04/20 14:53:31;;;;;;;18.37;12.33;;;;;;;9.31;100.00;100308.59;5205602;56;1143271;-77
2022/04/20 14:58:37;;;;;;;24.37;13.97;;;;;;;9.38;100.00;100318.19;5182484;56;1143058;-74
2022/04/20 15:03:43;;;;;;;21.57;13.73;;;;;;;9.46;100.00;100318.46;5155850;57;1143194;-75
2022/04/20 15:08:49;;;;;;;21.33;13.47;;;;;;;9.47;100.00;100321.47;5206946;56;1143117;-78
2022/04/20 15:13:55;;;;;;;25.20;13.23;;;;;;;9.43;100.00;100320.01;5155472;57;1143076;-75
2022/04/20 15:19:01;;;;;;;30.37;16.77;;;;;;;9.45;100.00;100321.58;5185929;56;1143102;-76
2022/04/20 15:24:07;;;;;;;44.40;24.40;;;;;;;9.47;100.00;100322.78;5102887;57;1143444;-77
2022/04/20 15:29:14;;;;;;;64.73;33.73;;;;;;;9.52;100.00;100321.94;5079912;57;1143386;-78
2022/04/20 15:34:20;;;;;;;59.97;32.43;;;;;;;9.50;100.00;100311.48;5142813;56;1143376;-75
2022/04/20 15:39:26;;;;;;;35.67;18.97;;;;;;;9.53;100.00;100326.26;5177434;56;1143211;-77
2022/04/20 15:44:32;;;;;;;28.97;14.60;;;;;;;9.57;100.00;100333.47;5211046;56;1143116;-76
2022/04/20 15:49:38;;;;;;;24.53;12.57;;;;;;;9.63;100.00;100325.91;5172238;56;1143373;-77
2022/04/20 15:54:44;;;;;;;22.07;12.73;;;;;;;9.68;100.00;100326.88;5215571;56;1143193;-74
2022/04/20 16:05:28;;;;;;;36.23;20.23;;;;;;;9.74;100.00;100322.46;5180386;56;1143187;-74
2022/04/20 16:10:29;;;;;;;55.93;29.83;;;;;;;9.74;100.00;100320.66;5180575;56;1143109;-74
2022/04/20 16:15:35;;;;;;;66.93;37.30;;;;;;;9.67;100.00;100322.08;5187184;56;1143215;-75
2022/04/20 16:20:42;;;;;;;42.17;23.20;;;;;;;9.62;100.00;100332.17;5173034;56;1143120;-74
2022/04/20 16:25:48;;;;;;;31.20;14.60;;;;;;;9.63;100.00;100328.55;5179434;56;1143109;-76
2022/04/20 16:30:54;;;;;;;45.77;22.67;;;;;;;9.67;100.00;100335.28;5180901;56;1143122;-73
2022/04/20 16:36:00;;;;;;;51.30;28.43;;;;;;;9.71;100.00;100343.81;5167667;56;1143131;-77
2022/04/20 16:41:05;;;;;;;61.07;25.93;;;;;;;9.65;100.00;100349.08;5172186;56;1143127;-72
2022/04/20 16:46:11;;;;;;;37.05;19.23;;;;;;;9.62;100.00;100341.42;5195505;56;1143177;-73
2022/04/20 16:51:17;;;;;;;33.17;16.83;;;;;;;9.65;100.00;100343.80;5172714;56;1143145;-74
2022/04/20 16:56:23;;;;;;;45.23;23.07;;;;;;;9.64;100.00;100342.11;5176094;56;1143125;-72
2022/04/20 17:01:29;;;;;;;28.20;17.03;;;;;;;9.70;100.00;100339.02;5186258;56;1143177;-75
2022/04/20 17:06:35;;;;;;;32.77;17.83;;;;;;;9.72;100.00;100341.06;5195045;56;1141000;-73
2022/04/20 17:11:41;;;;;;;22.00;14.27;;;;;;;9.65;100.00;100335.87;5161427;57;1141383;-75
2022/04/20 17:16:46;;;;;;;22.87;12.70;;;;;;;9.58;100.00;100351.00;5161513;57;1141120;-76
2022/04/20 17:27:16;;;;;;;31.83;16.87;;;;;;;9.46;100.00;100352.78;5168159;56;1141370;-76
2022/04/20 17:32:22;;;;;;;27.53;14.87;;;;;;;9.37;100.00;100352.97;5161319;57;1141119;-73
2022/04/20 17:37:28;;;;;;;24.60;16.57;;;;;;;9.32;100.00;100359.58;5167412;56;1141096;-78
2022/04/20 17:42:34;;;;;;;22.77;13.40;;;;;;;9.32;100.00;100370.13;5213920;56;1141088;-69
2022/04/20 17:47:40;;;;;;;25.93;11.27;;;;;;;9.32;100.00;100365.66;5194994;56;1141158;-70
2022/04/20 17:52:46;;;;;;;25.23;13.83;;;;;;;9.23;100.00;100365.52;5162095;57;1141273;-71
2022/04/20 17:57:52;;;;;;;34.40;18.57;;;;;;;9.14;100.00;100362.63;5157420;57;1141103;-71
2022/04/20 18:02:58;;;;;;;27.53;15.40;;;;;;;9.09;100.00;100366.06;5156436;57;1141137;-68
2022/04/20 18:08:03;;;;;;;47.73;22.20;;;;;;;9.02;100.00;100365.30;5156417;57;1141077;-69
2022/04/20 18:13:09;;;;;;;41.93;22.80;;;;;;;9.03;100.00;100365.19;5149028;57;1141306;-69
2022/04/20 18:18:15;;;;;;;46.20;22.17;;;;;;;9.05;100.00;100364.61;5121460;57;1141069;-71
2022/04/20 18:23:22;;;;;;;18.00;12.20;;;;;;;9.08;100.00;100360.91;5075802;58;1139120;-69
2022/04/20 18:28:28;;;;;;;33.57;17.47;;;;;;;9.07;100.00;100365.34;5093624;57;1139019;-69
2022/04/20 18:33:34;;;;;;;19.37;12.00;;;;;;;9.03;100.00;100365.66;5100156;57;1143134;-70
2022/04/20 18:38:40;;;;;;;26.53;13.77;;;;;;;9.00;100.00;100365.44;5124650;57;1143319;-70
2022/04/20 18:43:46;;;;;;;41.27;20.00;;;;;;;9.02;100.00;100363.98;5151451;57;1143090;-70
2022/04/20 18:48:54;;;;;;;30.30;15.80;;;;;;;9.00;100.00;100364.59;5127276;57;1143145;-68
2022/04/20 18:59:23;;;;;;;32.17;19.67;;;;;;;9.13;100.00;100370.65;5211983;56;1143511;-71
2022/04/20 19:09:56;;;;;;;31.70;16.85;;;;;;;9.05;100.00;100369.88;5165938;56;1143264;-69
2022/04/20 19:15:01;;;;;;;36.50;19.40;;;;;;;9.02;100.00;100366.14;5202328;56;1143278;-68
2022/04/20 19:20:11;;;;;;;29.10;15.83;;;;;;;9.03;100.00;100369.63;5184839;56;1143375;-70
2022/04/20 19:25:15;;;;;;;26.80;14.93;;;;;;;8.98;100.00;100369.98;5175751;56;1143339;-71
2022/04/20 19:30:21;;;;;;;26.60;17.57;;;;;;;8.96;100.00;100370.56;5177369;56;1143428;-69
2022/04/20 19:35:26;;;;;;;21.63;14.57;;;;;;;8.90;100.00;100368.84;5190998;56;1143378;-70
2022/04/20 19:40:34;;;;;;;25.43;16.30;;;;;;;8.88;100.00;100370.75;5167974;56;1143148;-69
2022/04/20 19:45:40;;;;;;;27.33;17.43;;;;;;;8.92;100.00;100365.14;5184501;56;1143095;-70
2022/04/20 19:50:47;;;;;;;33.33;19.40;;;;;;;8.93;100.00;100355.44;5184921;56;1143375;-70
2022/04/20 19:55:53;;;;;;;34.80;18.73;;;;;;;9.04;100.00;100364.72;5201109;56;1143225;-70
2022/04/20 20:00:59;;;;;;;30.03;20.13;;;;;;;9.00;100.00;100357.53;4977114;59;1143261;-68
2022/04/20 20:06:17;;;;;;;28.37;18.67;;;;;;;8.97;100.00;100363.50;5018958;58;1143184;-69
2022/04/20 20:11:26;;;;;;;29.43;16.70;;;;;;;8.98;100.00;100362.55;5095240;57;1143298;-70
2022/04/20 20:16:32;;;;;;;25.80;14.83;;;;;;;9.05;100.00;100364.61;5106341;57;1143171;-69
2022/04/20 20:21:39;;;;;;;25.53;14.83;;;;;;;9.10;100.00;100364.27;5102558;57;1143186;-70
2022/04/20 20:31:59;;;;;;;27.70;17.03;;;;;;;9.07;100.00;100357.90;5055313;57;1143173;-71
2022/04/20 20:37:05;;;;;;;26.40;15.83;;;;;;;9.04;100.00;100366.03;5087085;57;1143171;-71
2022/04/20 20:42:12;;;;;;;26.37;16.45;;;;;;;9.06;100.00;100367.61;5092694;57;1143224;-69
2022/04/20 20:47:18;;;;;;;27.63;16.13;;;;;;;9.08;100.00;100365.70;5094639;57;1143212;-71
2022/04/20 20:52:24;;;;;;;21.93;11.93;;;;;;;9.09;100.00;100362.59;5093231;57;1141432;-70
2022/04/20 20:57:31;;;;;;;20.73;13.60;;;;;;;9.06;100.00;100366.29;5120049;57;1140996;-71
2022/04/20 21:02:38;;;;;;;20.50;13.90;;;;;;;8.99;100.00;100366.88;5167518;56;1141309;-69
2022/04/20 21:07:44;;;;;;;18.80;11.77;;;;;;;8.95;100.00;100363.61;5162045;56;1141026;-70
2022/04/20 21:12:49;;;;;;;16.70;11.73;;;;;;;8.97;100.00;100359.06;5167424;56;1141095;-71
2022/04/20 21:17:55;;;;;;;17.20;10.53;;;;;;;8.97;100.00;100360.38;5182855;56;1141115;-69
2022/04/20 21:23:02;;;;;;;17.57;11.65;;;;;;;9.01;100.00;100367.09;5172794;56;1141287;-70
2022/04/20 21:28:08;;;;;;;20.60;13.70;;;;;;;8.93;100.00;100365.52;5179046;56;1141110;-69
2022/04/20 21:33:15;;;;;;;17.07;12.27;;;;;;;8.88;100.00;100367.63;5166844;56;1141131;-69
2022/04/20 21:38:21;;;;;;;16.43;11.33;;;;;;;8.87;100.00;100363.78;5190098;56;1141158;-69
2022/04/20 21:43:32;;;;;;;16.73;11.03;;;;;;;8.85;100.00;100365.24;5172446;56;1141103;-70
2022/04/20 21:48:39;;;;;;;23.10;13.07;;;;;;;8.84;100.00;100373.27;5166036;56;1141174;-70
2022/04/20 21:53:47;;;;;;;21.20;14.03;;;;;;;8.82;100.00;100377.33;5161638;56;1141214;-68
2022/04/20 21:58:53;;;;;;;22.77;13.67;;;;;;;8.84;100.00;100366.19;5239307;56;1141671;-68
2022/04/20 22:09:41;;;;;;;23.98;13.18;;;;;;;8.87;100.00;100376.49;5163274;57;1143452;-69
2022/04/20 22:14:52;;;;;;;18.67;12.97;;;;;;;8.80;100.00;100383.19;5163316;57;1143169;-69
2022/04/20 22:19:55;;;;;;;27.37;14.73;;;;;;;8.77;100.00;100378.97;5163293;57;1143336;-69
2022/04/20 22:25:01;;;;;;;21.00;13.23;;;;;;;8.77;100.00;100376.33;5204721;56;1143417;-69
2022/04/20 22:30:08;;;;;;;22.00;14.50;;;;;;;8.77;100.00;100376.33;5152192;57;1143394;-68
2022/04/20 22:35:14;;;;;;;24.57;15.57;;;;;;;8.86;100.00;100370.05;5163917;57;1143248;-69
2022/04/20 22:40:20;;;;;;;29.30;17.23;;;;;;;8.91;100.00;100362.14;5163735;57;1143215;-69
2022/04/20 22:45:26;;;;;;;28.77;16.27;;;;;;;8.91;100.00;100353.38;5163787;57;1143380;-70
2022/04/20 22:50:31;;;;;;;40.37;22.50;;;;;;;8.91;100.00;100335.77;5163947;57;1143192;-69
2022/04/20 22:55:37;;;;;;;33.07;19.60;;;;;;;8.92;100.00;100320.78;5163877;57;1143339;-68
2022/04/20 23:00:43;;;;;;;39.73;23.17;;;;;;;8.94;100.00;100299.94;5162725;57;1143251;-71
2022/04/20 23:05:49;;;;;;;33.63;22.33;;;;;;;8.92;100.00;100291.30;5161617;57;1143314;-69
2022/04/20 23:10:55;;;;;;;31.67;19.80;;;;;;;8.94;100.00;100315.77;5161556;57;1143249;-69
2022/04/20 23:16:01;;;;;;;36.23;20.17;;;;;;;8.84;100.00;100333.70;5161575;57;1143226;-69
2022/04/20 23:21:07;;;;;;;30.37;18.93;;;;;;;8.75;100.00;100343.95;5122875;57;1142574;-68
2022/04/20 23:31:37;;;;;;;25.70;18.10;;;;;;;8.85;100.00;100359.13;5161797;57;1143601;-69
2022/04/20 23:36:43;;;;;;;25.97;16.63;;;;;;;8.92;100.00;100363.83;5161457;57;1143202;-69
2022/04/20 23:41:49;;;;;;;22.43;15.80;;;;;;;8.90;100.00;100360.45;5161464;57;1143226;-70
2022/04/20 23:46:54;;;;;;;27.00;16.97;;;;;;;8.88;100.00;100361.52;5161541;57;1143254;-69
2022/04/20 23:52:00;;;;;;;29.73;16.37;;;;;;;8.86;100.00;100356.86;5161560;56;1143474;-68
2022/04/20 23:57:06;;;;;;;33.13;20.10;;;;;;;8.90;100.00;100349.06;5161596;56;1143328;-70
